sensor_id;sensor_type;location;lat;lon;timestamp;P1;durP1;ratioP1;P2;durP2;ratioP2
44328;SDS011;30039;51.462;6.892;2023-02-14T00:02:35;8.40;;;4.57;;
44328;SDS011;30039;51.462;6.892;2023-02-14T00:05:21;8.13;;;4.03;;
44328;SDS011;30039;51.462;6.892;2023-02-14T00:08:07;7.47;;;4.05;;
44328;SDS011;30039;51.462;6.892;2023-02-14T00:10:53;5.25;;;3.42;;
44328;SDS011;30039;51.462;6.892;2023-02-14T00:13:39;9.18;;;4.20;;
44328;SDS011;30039;51.462;6.892;2023-02-14T00:16:44;10.63;;;4.47;;
44328;SDS011;30039;51.462;6.892;2023-02-14T00:19:30;7.70;;;4.40;;
44328;SDS011;30039;51.462;6.892;2023-02-14T00:22:16;6.35;;;4.05;;
44328;SDS011;30039;51.462;6.892;2023-02-14T00:25:02;7.25;;;4.30;;
44328;SDS011;30039;51.462;6.892;2023-02-14T00:27:47;7.30;;;4.88;;
44328;SDS011;30039;51.462;6.892;2023-02-14T00:30:33;8.55;;;4.45;;
44328;SDS011;30039;51.462;6.892;2023-02-14T00:33:19;8.05;;;4.18;;
44328;SDS011;30039;51.462;6.892;2023-02-14T00:36:05;8.73;;;4.25;;
44328;SDS011;30039;51.462;6.892;2023-02-14T00:38:51;8.05;;;4.45;;
44328;SDS011;30039;51.462;6.892;2023-02-14T00:41:37;7.57;;;4.43;;
44328;SDS011;30039;51.462;6.892;2023-02-14T00:44:23;8.70;;;4.60;;
44328;SDS011;30039;51.462;6.892;2023-02-14T00:47:09;6.95;;;4.40;;
44328;SDS011;30039;51.462;6.892;2023-02-14T00:49:55;6.57;;;4.43;;
44328;SDS011;30039;51.462;6.892;2023-02-14T00:52:46;9.68;;;4.47;;
44328;SDS011;30039;51.462;6.892;2023-02-14T00:55:32;8.32;;;4.47;;
44328;SDS011;30039;51.462;6.892;2023-02-14T00:58:18;7.40;;;4.35;;
44328;SDS011;30039;51.462;6.892;2023-02-14T01:01:03;8.52;;;3.95;;
44328;SDS011;30039;51.462;6.892;2023-02-14T01:03:49;8.57;;;4.50;;
44328;SDS011;30039;51.462;6.892;2023-02-14T01:06:35;6.10;;;3.95;;
44328;SDS011;30039;51.462;6.892;2023-02-14T01:09:20;6.85;;;4.25;;
44328;SDS011;30039;51.462;6.892;2023-02-14T01:12:07;7.55;;;4.22;;
44328;SDS011;30039;51.462;6.892;2023-02-14T01:14:54;7.93;;;4.53;;
44328;SDS011;30039;51.462;6.892;2023-02-14T01:17:40;8.35;;;4.07;;
44328;SDS011;30039;51.462;6.892;2023-02-14T01:20:25;9.25;;;4.70;;
44328;SDS011;30039;51.462;6.892;2023-02-14T01:23:11;6.80;;;4.30;;
44328;SDS011;30039;51.462;6.892;2023-02-14T01:25:56;8.52;;;4.38;;
44328;SDS011;30039;51.462;6.892;2023-02-14T01:28:43;6.63;;;4.28;;
44328;SDS011;30039;51.462;6.892;2023-02-14T01:31:30;7.80;;;4.40;;
44328;SDS011;30039;51.462;6.892;2023-02-14T01:34:16;8.80;;;4.57;;
44328;SDS011;30039;51.462;6.892;2023-02-14T01:37:02;8.05;;;4.45;;
44328;SDS011;30039;51.462;6.892;2023-02-14T01:39:48;7.10;;;4.00;;
44328;SDS011;30039;51.462;6.892;2023-02-14T01:42:34;8.55;;;4.60;;
44328;SDS011;30039;51.462;6.892;2023-02-14T01:45:21;9.27;;;4.35;;
44328;SDS011;30039;51.462;6.892;2023-02-14T01:48:06;9.80;;;4.63;;
44328;SDS011;30039;51.462;6.892;2023-02-14T01:50:54;8.40;;;4.30;;
44328;SDS011;30039;51.462;6.892;2023-02-14T01:53:40;7.45;;;4.30;;
44328;SDS011;30039;51.462;6.892;2023-02-14T01:56:27;7.18;;;4.32;;
44328;SDS011;30039;51.462;6.892;2023-02-14T01:59:15;6.85;;;4.28;;
44328;SDS011;30039;51.462;6.892;2023-02-14T02:02:01;10.05;;;4.63;;
44328;SDS011;30039;51.462;6.892;2023-02-14T02:04:48;7.97;;;4.32;;
44328;SDS011;30039;51.462;6.892;2023-02-14T02:07:35;6.00;;;4.10;;
44328;SDS011;30039;51.462;6.892;2023-02-14T02:10:21;10.00;;;4.90;;
44328;SDS011;30039;51.462;6.892;2023-02-14T02:13:07;7.93;;;4.40;;
44328;SDS011;30039;51.462;6.892;2023-02-14T02:18:51;7.20;;;4.65;;
44328;SDS011;30039;51.462;6.892;2023-02-14T02:24:32;10.10;;;4.85;;
44328;SDS011;30039;51.462;6.892;2023-02-14T02:30:43;8.73;;;4.78;;
44328;SDS011;30039;51.462;6.892;2023-02-14T02:36:36;10.57;;;5.35;;
44328;SDS011;30039;51.462;6.892;2023-02-14T02:39:33;7.53;;;4.47;;
44328;SDS011;30039;51.462;6.892;2023-02-14T02:48:19;9.85;;;4.45;;
44328;SDS011;30039;51.462;6.892;2023-02-14T02:51:08;8.80;;;4.85;;
44328;SDS011;30039;51.462;6.892;2023-02-14T02:54:26;9.00;;;4.47;;
44328;SDS011;30039;51.462;6.892;2023-02-14T02:57:18;10.02;;;4.93;;
44328;SDS011;30039;51.462;6.892;2023-02-14T03:00:06;8.52;;;4.25;;
44328;SDS011;30039;51.462;6.892;2023-02-14T03:02:54;8.02;;;4.57;;
44328;SDS011;30039;51.462;6.892;2023-02-14T03:06:00;9.27;;;4.60;;
44328;SDS011;30039;51.462;6.892;2023-02-14T03:08:46;8.05;;;4.30;;
44328;SDS011;30039;51.462;6.892;2023-02-14T03:11:32;7.40;;;5.03;;
44328;SDS011;30039;51.462;6.892;2023-02-14T03:14:32;7.97;;;4.22;;
44328;SDS011;30039;51.462;6.892;2023-02-14T03:23:08;6.93;;;4.50;;
44328;SDS011;30039;51.462;6.892;2023-02-14T03:26:19;7.68;;;4.75;;
44328;SDS011;30039;51.462;6.892;2023-02-14T03:29:22;8.38;;;4.88;;
44328;SDS011;30039;51.462;6.892;2023-02-14T03:32:21;8.85;;;4.43;;
44328;SDS011;30039;51.462;6.892;2023-02-14T03:38:17;7.95;;;4.70;;
44328;SDS011;30039;51.462;6.892;2023-02-14T03:41:06;9.43;;;4.55;;
44328;SDS011;30039;51.462;6.892;2023-02-14T03:43:59;9.70;;;4.85;;
44328;SDS011;30039;51.462;6.892;2023-02-14T03:46:49;10.27;;;4.82;;
44328;SDS011;30039;51.462;6.892;2023-02-14T03:49:37;9.50;;;5.15;;
44328;SDS011;30039;51.462;6.892;2023-02-14T03:52:23;9.55;;;5.00;;
44328;SDS011;30039;51.462;6.892;2023-02-14T03:55:09;8.02;;;5.07;;
44328;SDS011;30039;51.462;6.892;2023-02-14T04:00:45;7.47;;;4.53;;
44328;SDS011;30039;51.462;6.892;2023-02-14T04:03:32;7.63;;;4.90;;
44328;SDS011;30039;51.462;6.892;2023-02-14T04:06:20;8.77;;;5.28;;
44328;SDS011;30039;51.462;6.892;2023-02-14T04:09:05;8.75;;;5.20;;
44328;SDS011;30039;51.462;6.892;2023-02-14T04:11:51;8.68;;;4.97;;
44328;SDS011;30039;51.462;6.892;2023-02-14T04:14:38;8.75;;;5.32;;
44328;SDS011;30039;51.462;6.892;2023-02-14T04:17:23;11.05;;;4.93;;
44328;SDS011;30039;51.462;6.892;2023-02-14T04:20:29;10.63;;;5.57;;
44328;SDS011;30039;51.462;6.892;2023-02-14T04:23:14;9.82;;;5.05;;
44328;SDS011;30039;51.462;6.892;2023-02-14T04:26:00;8.90;;;4.65;;
44328;SDS011;30039;51.462;6.892;2023-02-14T04:28:48;10.43;;;5.65;;
44328;SDS011;30039;51.462;6.892;2023-02-14T04:31:33;7.88;;;4.88;;
44328;SDS011;30039;51.462;6.892;2023-02-14T04:34:19;9.38;;;5.57;;
44328;SDS011;30039;51.462;6.892;2023-02-14T04:37:05;10.55;;;5.43;;
44328;SDS011;30039;51.462;6.892;2023-02-14T04:39:50;11.57;;;5.28;;
44328;SDS011;30039;51.462;6.892;2023-02-14T04:42:38;8.55;;;5.18;;
44328;SDS011;30039;51.462;6.892;2023-02-14T04:45:26;9.55;;;5.15;;
44328;SDS011;30039;51.462;6.892;2023-02-14T04:48:13;8.75;;;4.97;;
44328;SDS011;30039;51.462;6.892;2023-02-14T04:50:59;9.45;;;5.45;;
44328;SDS011;30039;51.462;6.892;2023-02-14T04:53:45;23.83;;;13.63;;
44328;SDS011;30039;51.462;6.892;2023-02-14T04:56:33;11.50;;;6.05;;
44328;SDS011;30039;51.462;6.892;2023-02-14T04:59:18;10.18;;;5.47;;
44328;SDS011;30039;51.462;6.892;2023-02-14T05:02:04;10.63;;;5.88;;
44328;SDS011;30039;51.462;6.892;2023-02-14T05:04:49;10.82;;;5.75;;
44328;SDS011;30039;51.462;6.892;2023-02-14T05:07:35;12.05;;;5.68;;
44328;SDS011;30039;51.462;6.892;2023-02-14T05:10:22;9.73;;;6.20;;
44328;SDS011;30039;51.462;6.892;2023-02-14T05:13:08;9.68;;;5.93;;
44328;SDS011;30039;51.462;6.892;2023-02-14T05:15:55;13.27;;;6.72;;
44328;SDS011;30039;51.462;6.892;2023-02-14T05:18:40;14.45;;;6.85;;
44328;SDS011;30039;51.462;6.892;2023-02-14T05:21:26;12.90;;;7.00;;
44328;SDS011;30039;51.462;6.892;2023-02-14T05:24:12;13.70;;;6.78;;
44328;SDS011;30039;51.462;6.892;2023-02-14T05:26:58;11.75;;;6.70;;
44328;SDS011;30039;51.462;6.892;2023-02-14T05:29:43;13.10;;;6.88;;
44328;SDS011;30039;51.462;6.892;2023-02-14T05:32:29;13.48;;;7.40;;
44328;SDS011;30039;51.462;6.892;2023-02-14T05:35:15;11.73;;;6.95;;
44328;SDS011;30039;51.462;6.892;2023-02-14T05:38:00;12.07;;;6.70;;
44328;SDS011;30039;51.462;6.892;2023-02-14T05:40:46;13.15;;;7.28;;
44328;SDS011;30039;51.462;6.892;2023-02-14T05:43:32;14.43;;;7.57;;
44328;SDS011;30039;51.462;6.892;2023-02-14T05:46:17;13.13;;;7.72;;
44328;SDS011;30039;51.462;6.892;2023-02-14T05:49:03;19.00;;;7.85;;
44328;SDS011;30039;51.462;6.892;2023-02-14T05:51:48;12.43;;;7.07;;
44328;SDS011;30039;51.462;6.892;2023-02-14T05:54:34;23.80;;;10.73;;
44328;SDS011;30039;51.462;6.892;2023-02-14T05:57:20;17.73;;;8.65;;
44328;SDS011;30039;51.462;6.892;2023-02-14T06:00:06;17.08;;;9.13;;
44328;SDS011;30039;51.462;6.892;2023-02-14T06:02:52;17.55;;;8.82;;
44328;SDS011;30039;51.462;6.892;2023-02-14T06:05:37;17.75;;;8.07;;
44328;SDS011;30039;51.462;6.892;2023-02-14T06:08:23;16.05;;;8.48;;
44328;SDS011;30039;51.462;6.892;2023-02-14T06:11:08;17.77;;;8.27;;
44328;SDS011;30039;51.462;6.892;2023-02-14T06:13:54;18.38;;;10.23;;
44328;SDS011;30039;51.462;6.892;2023-02-14T06:16:39;20.10;;;9.55;;
44328;SDS011;30039;51.462;6.892;2023-02-14T06:19:25;18.52;;;9.48;;
44328;SDS011;30039;51.462;6.892;2023-02-14T06:22:11;22.95;;;9.45;;
44328;SDS011;30039;51.462;6.892;2023-02-14T06:24:56;18.00;;;9.05;;
44328;SDS011;30039;51.462;6.892;2023-02-14T06:27:42;17.70;;;9.20;;
44328;SDS011;30039;51.462;6.892;2023-02-14T06:30:27;18.58;;;9.07;;
44328;SDS011;30039;51.462;6.892;2023-02-14T06:33:13;19.70;;;10.25;;
44328;SDS011;30039;51.462;6.892;2023-02-14T06:35:59;17.33;;;10.98;;
44328;SDS011;30039;51.462;6.892;2023-02-14T06:38:44;18.30;;;9.68;;
44328;SDS011;30039;51.462;6.892;2023-02-14T06:41:33;24.30;;;10.68;;
44328;SDS011;30039;51.462;6.892;2023-02-14T06:44:18;21.95;;;12.00;;
44328;SDS011;30039;51.462;6.892;2023-02-14T06:47:09;26.75;;;13.13;;
44328;SDS011;30039;51.462;6.892;2023-02-14T06:49:55;30.63;;;13.45;;
44328;SDS011;30039;51.462;6.892;2023-02-14T06:52:44;25.40;;;13.15;;
44328;SDS011;30039;51.462;6.892;2023-02-14T06:55:31;30.75;;;14.88;;
44328;SDS011;30039;51.462;6.892;2023-02-14T06:58:16;29.70;;;15.15;;
44328;SDS011;30039;51.462;6.892;2023-02-14T07:01:03;27.98;;;14.50;;
44328;SDS011;30039;51.462;6.892;2023-02-14T07:03:49;25.25;;;13.75;;
44328;SDS011;30039;51.462;6.892;2023-02-14T07:06:35;29.83;;;14.75;;
44328;SDS011;30039;51.462;6.892;2023-02-14T07:09:21;33.08;;;15.77;;
44328;SDS011;30039;51.462;6.892;2023-02-14T07:12:06;33.78;;;14.23;;
44328;SDS011;30039;51.462;6.892;2023-02-14T07:14:52;33.45;;;15.95;;
44328;SDS011;30039;51.462;6.892;2023-02-14T07:17:37;37.67;;;15.73;;
44328;SDS011;30039;51.462;6.892;2023-02-14T07:20:23;29.77;;;14.60;;
44328;SDS011;30039;51.462;6.892;2023-02-14T07:23:09;31.92;;;15.45;;
44328;SDS011;30039;51.462;6.892;2023-02-14T07:25:56;28.48;;;14.27;;
44328;SDS011;30039;51.462;6.892;2023-02-14T07:28:41;31.05;;;15.73;;
44328;SDS011;30039;51.462;6.892;2023-02-14T07:31:27;31.38;;;15.05;;
44328;SDS011;30039;51.462;6.892;2023-02-14T07:34:12;32.58;;;14.75;;
44328;SDS011;30039;51.462;6.892;2023-02-14T07:37:00;29.95;;;15.15;;
44328;SDS011;30039;51.462;6.892;2023-02-14T07:39:46;28.42;;;14.80;;
44328;SDS011;30039;51.462;6.892;2023-02-14T07:42:31;29.70;;;13.98;;
44328;SDS011;30039;51.462;6.892;2023-02-14T07:45:17;32.00;;;13.68;;
44328;SDS011;30039;51.462;6.892;2023-02-14T07:48:02;30.38;;;13.82;;
44328;SDS011;30039;51.462;6.892;2023-02-14T07:50:49;27.23;;;13.52;;
44328;SDS011;30039;51.462;6.892;2023-02-14T07:53:36;32.33;;;14.52;;
44328;SDS011;30039;51.462;6.892;2023-02-14T07:56:21;31.15;;;13.43;;
44328;SDS011;30039;51.462;6.892;2023-02-14T07:59:07;25.77;;;13.15;;
44328;SDS011;30039;51.462;6.892;2023-02-14T08:01:52;26.40;;;12.75;;
44328;SDS011;30039;51.462;6.892;2023-02-14T08:04:38;28.45;;;14.23;;
44328;SDS011;30039;51.462;6.892;2023-02-14T08:07:24;31.13;;;13.20;;
44328;SDS011;30039;51.462;6.892;2023-02-14T08:10:09;29.10;;;13.65;;
44328;SDS011;30039;51.462;6.892;2023-02-14T08:12:55;25.27;;;12.05;;
44328;SDS011;30039;51.462;6.892;2023-02-14T08:15:43;24.83;;;12.48;;
44328;SDS011;30039;51.462;6.892;2023-02-14T08:18:48;25.27;;;13.40;;
44328;SDS011;30039;51.462;6.892;2023-02-14T08:21:33;27.77;;;12.73;;
44328;SDS011;30039;51.462;6.892;2023-02-14T08:24:19;22.73;;;10.88;;
44328;SDS011;30039;51.462;6.892;2023-02-14T08:27:04;22.77;;;11.65;;
44328;SDS011;30039;51.462;6.892;2023-02-14T08:29:50;24.60;;;12.10;;
44328;SDS011;30039;51.462;6.892;2023-02-14T08:32:35;26.70;;;11.65;;
44328;SDS011;30039;51.462;6.892;2023-02-14T08:35:21;21.92;;;10.80;;
44328;SDS011;30039;51.462;6.892;2023-02-14T08:38:07;25.33;;;10.73;;
44328;SDS011;30039;51.462;6.892;2023-02-14T08:40:52;24.83;;;11.55;;
44328;SDS011;30039;51.462;6.892;2023-02-14T08:43:39;24.33;;;10.80;;
44328;SDS011;30039;51.462;6.892;2023-02-14T08:46:26;21.67;;;10.45;;
44328;SDS011;30039;51.462;6.892;2023-02-14T08:49:12;22.80;;;9.85;;
44328;SDS011;30039;51.462;6.892;2023-02-14T08:51:57;18.92;;;9.52;;
44328;SDS011;30039;51.462;6.892;2023-02-14T08:54:43;19.88;;;9.20;;
44328;SDS011;30039;51.462;6.892;2023-02-14T08:57:30;17.17;;;9.65;;
44328;SDS011;30039;51.462;6.892;2023-02-14T09:00:18;21.27;;;9.63;;
44328;SDS011;30039;51.462;6.892;2023-02-14T09:03:04;20.23;;;9.73;;
44328;SDS011;30039;51.462;6.892;2023-02-14T09:05:49;16.98;;;9.20;;
44328;SDS011;30039;51.462;6.892;2023-02-14T09:08:35;15.65;;;8.63;;
44328;SDS011;30039;51.462;6.892;2023-02-14T09:11:22;22.38;;;9.80;;
44328;SDS011;30039;51.462;6.892;2023-02-14T09:14:08;16.30;;;8.65;;
44328;SDS011;30039;51.462;6.892;2023-02-14T09:16:54;16.00;;;9.23;;
44328;SDS011;30039;51.462;6.892;2023-02-14T09:19:41;16.65;;;8.27;;
44328;SDS011;30039;51.462;6.892;2023-02-14T09:22:26;16.30;;;8.25;;
44328;SDS011;30039;51.462;6.892;2023-02-14T09:25:12;14.10;;;8.05;;
44328;SDS011;30039;51.462;6.892;2023-02-14T09:27:58;16.08;;;8.57;;
44328;SDS011;30039;51.462;6.892;2023-02-14T09:30:43;17.20;;;8.60;;
44328;SDS011;30039;51.462;6.892;2023-02-14T09:33:29;19.38;;;8.45;;
44328;SDS011;30039;51.462;6.892;2023-02-14T09:36:14;15.90;;;8.27;;
44328;SDS011;30039;51.462;6.892;2023-02-14T09:39:20;19.08;;;8.55;;
44328;SDS011;30039;51.462;6.892;2023-02-14T09:42:20;17.85;;;8.48;;
44328;SDS011;30039;51.462;6.892;2023-02-14T09:45:14;15.10;;;8.73;;
44328;SDS011;30039;51.462;6.892;2023-02-14T09:48:10;14.40;;;8.65;;
44328;SDS011;30039;51.462;6.892;2023-02-14T09:51:19;16.13;;;8.68;;
44328;SDS011;30039;51.462;6.892;2023-02-14T09:54:12;16.15;;;8.38;;
44328;SDS011;30039;51.462;6.892;2023-02-14T09:56:59;14.93;;;9.27;;
44328;SDS011;30039;51.462;6.892;2023-02-14T10:00:11;16.25;;;8.38;;
44328;SDS011;30039;51.462;6.892;2023-02-14T10:03:07;15.93;;;9.10;;
44328;SDS011;30039;51.462;6.892;2023-02-14T10:09:02;14.80;;;8.18;;
44328;SDS011;30039;51.462;6.892;2023-02-14T10:11:53;13.88;;;8.00;;
44328;SDS011;30039;51.462;6.892;2023-02-14T10:14:41;14.82;;;8.73;;
44328;SDS011;30039;51.462;6.892;2023-02-14T10:20:18;17.27;;;9.00;;
44328;SDS011;30039;51.462;6.892;2023-02-14T10:26:34;14.38;;;8.55;;
44328;SDS011;30039;51.462;6.892;2023-02-14T10:29:20;14.48;;;8.32;;
44328;SDS011;30039;51.462;6.892;2023-02-14T10:32:10;13.82;;;7.90;;
44328;SDS011;30039;51.462;6.892;2023-02-14T10:34:59;15.93;;;8.20;;
44328;SDS011;30039;51.462;6.892;2023-02-14T10:40:42;12.02;;;8.15;;
44328;SDS011;30039;51.462;6.892;2023-02-14T10:54:57;12.48;;;8.23;;
44328;SDS011;30039;51.462;6.892;2023-02-14T10:57:45;15.52;;;8.88;;
44328;SDS011;30039;51.462;6.892;2023-02-14T11:00:34;13.80;;;7.93;;
44328;SDS011;30039;51.462;6.892;2023-02-14T11:03:21;15.20;;;8.38;;
44328;SDS011;30039;51.462;6.892;2023-02-14T11:06:08;16.90;;;8.93;;
44328;SDS011;30039;51.462;6.892;2023-02-14T11:08:55;13.23;;;7.72;;
44328;SDS011;30039;51.462;6.892;2023-02-14T11:11:43;18.83;;;8.50;;
44328;SDS011;30039;51.462;6.892;2023-02-14T11:14:33;15.50;;;8.35;;
44328;SDS011;30039;51.462;6.892;2023-02-14T11:17:28;12.50;;;8.02;;
44328;SDS011;30039;51.462;6.892;2023-02-14T11:23:17;12.98;;;7.32;;
44328;SDS011;30039;51.462;6.892;2023-02-14T11:26:04;10.98;;;7.20;;
44328;SDS011;30039;51.462;6.892;2023-02-14T11:31:38;14.15;;;7.97;;
44328;SDS011;30039;51.462;6.892;2023-02-14T11:40:06;12.20;;;7.10;;
44328;SDS011;30039;51.462;6.892;2023-02-14T11:42:52;14.13;;;7.18;;
44328;SDS011;30039;51.462;6.892;2023-02-14T11:45:39;13.07;;;7.78;;
44328;SDS011;30039;51.462;6.892;2023-02-14T11:48:26;15.73;;;8.20;;
44328;SDS011;30039;51.462;6.892;2023-02-14T11:51:12;14.73;;;8.30;;
44328;SDS011;30039;51.462;6.892;2023-02-14T11:54:00;13.57;;;7.47;;
44328;SDS011;30039;51.462;6.892;2023-02-14T11:59:42;12.85;;;8.02;;
44328;SDS011;30039;51.462;6.892;2023-02-14T12:02:45;13.35;;;7.72;;
44328;SDS011;30039;51.462;6.892;2023-02-14T12:05:36;12.05;;;7.25;;
44328;SDS011;30039;51.462;6.892;2023-02-14T12:08:29;13.02;;;6.82;;
44328;SDS011;30039;51.462;6.892;2023-02-14T12:11:20;11.85;;;7.25;;
44328;SDS011;30039;51.462;6.892;2023-02-14T12:14:08;13.57;;;7.38;;
44328;SDS011;30039;51.462;6.892;2023-02-14T12:22:53;12.55;;;7.40;;
44328;SDS011;30039;51.462;6.892;2023-02-14T12:25:43;14.60;;;8.32;;
44328;SDS011;30039;51.462;6.892;2023-02-14T12:28:38;11.88;;;7.45;;
44328;SDS011;30039;51.462;6.892;2023-02-14T12:31:26;16.27;;;7.72;;
44328;SDS011;30039;51.462;6.892;2023-02-14T12:34:12;12.40;;;7.57;;
44328;SDS011;30039;51.462;6.892;2023-02-14T12:40:07;15.63;;;8.23;;
44328;SDS011;30039;51.462;6.892;2023-02-14T12:57:48;13.98;;;7.82;;
44328;SDS011;30039;51.462;6.892;2023-02-14T13:16:13;14.15;;;7.45;;
44328;SDS011;30039;51.462;6.892;2023-02-14T13:19:14;13.55;;;7.13;;
44328;SDS011;30039;51.462;6.892;2023-02-14T13:22:04;16.00;;;7.60;;
44328;SDS011;30039;51.462;6.892;2023-02-14T13:24:54;13.00;;;7.38;;
44328;SDS011;30039;51.462;6.892;2023-02-14T13:27:43;15.25;;;7.93;;
44328;SDS011;30039;51.462;6.892;2023-02-14T13:30:30;13.82;;;8.05;;
44328;SDS011;30039;51.462;6.892;2023-02-14T13:36:08;13.70;;;7.30;;
44328;SDS011;30039;51.462;6.892;2023-02-14T13:38:55;14.32;;;8.13;;
44328;SDS011;30039;51.462;6.892;2023-02-14T13:41:42;14.68;;;8.13;;
44328;SDS011;30039;51.462;6.892;2023-02-14T13:44:47;15.07;;;7.97;;
44328;SDS011;30039;51.462;6.892;2023-02-14T13:47:33;15.15;;;8.05;;
44328;SDS011;30039;51.462;6.892;2023-02-14T13:50:19;13.45;;;7.30;;
44328;SDS011;30039;51.462;6.892;2023-02-14T13:53:11;15.23;;;7.63;;
44328;SDS011;30039;51.462;6.892;2023-02-14T13:55:58;13.32;;;7.70;;
44328;SDS011;30039;51.462;6.892;2023-02-14T14:01:39;21.42;;;8.02;;
44328;SDS011;30039;51.462;6.892;2023-02-14T14:04:33;12.65;;;7.53;;
44328;SDS011;30039;51.462;6.892;2023-02-14T14:07:22;14.40;;;7.75;;
44328;SDS011;30039;51.462;6.892;2023-02-14T14:10:11;18.23;;;8.70;;
44328;SDS011;30039;51.462;6.892;2023-02-14T14:12:59;14.43;;;7.50;;
44328;SDS011;30039;51.462;6.892;2023-02-14T14:18:49;14.60;;;7.55;;
44328;SDS011;30039;51.462;6.892;2023-02-14T14:21:36;15.55;;;7.57;;
44328;SDS011;30039;51.462;6.892;2023-02-14T14:24:24;12.85;;;7.20;;
44328;SDS011;30039;51.462;6.892;2023-02-14T14:27:17;13.85;;;7.90;;
44328;SDS011;30039;51.462;6.892;2023-02-14T14:30:07;13.80;;;7.87;;
44328;SDS011;30039;51.462;6.892;2023-02-14T14:36:21;13.70;;;7.47;;
44328;SDS011;30039;51.462;6.892;2023-02-14T14:39:08;13.85;;;7.88;;
44328;SDS011;30039;51.462;6.892;2023-02-14T14:41:54;16.20;;;8.65;;
44328;SDS011;30039;51.462;6.892;2023-02-14T14:44:44;12.05;;;7.57;;
44328;SDS011;30039;51.462;6.892;2023-02-14T14:47:37;13.23;;;7.68;;
44328;SDS011;30039;51.462;6.892;2023-02-14T14:50:28;15.55;;;7.85;;
44328;SDS011;30039;51.462;6.892;2023-02-14T14:53:23;12.73;;;7.25;;
44328;SDS011;30039;51.462;6.892;2023-02-14T14:56:16;22.45;;;9.23;;
44328;SDS011;30039;51.462;6.892;2023-02-14T15:02:24;13.20;;;7.38;;
44328;SDS011;30039;51.462;6.892;2023-02-14T15:05:21;16.70;;;8.00;;
44328;SDS011;30039;51.462;6.892;2023-02-14T15:11:22;15.20;;;7.65;;
44328;SDS011;30039;51.462;6.892;2023-02-14T15:14:28;12.50;;;7.63;;
44328;SDS011;30039;51.462;6.892;2023-02-14T15:20:06;15.57;;;7.95;;
44328;SDS011;30039;51.462;6.892;2023-02-14T15:22:52;16.02;;;8.13;;
44328;SDS011;30039;51.462;6.892;2023-02-14T15:25:38;16.15;;;8.35;;
44328;SDS011;30039;51.462;6.892;2023-02-14T15:28:26;15.45;;;7.53;;
44328;SDS011;30039;51.462;6.892;2023-02-14T15:31:12;15.45;;;7.47;;
44328;SDS011;30039;51.462;6.892;2023-02-14T15:33:58;16.73;;;8.35;;
44328;SDS011;30039;51.462;6.892;2023-02-14T15:36:44;16.50;;;7.50;;
44328;SDS011;30039;51.462;6.892;2023-02-14T15:39:43;15.75;;;7.63;;
44328;SDS011;30039;51.462;6.892;2023-02-14T15:42:31;15.98;;;7.90;;
44328;SDS011;30039;51.462;6.892;2023-02-14T15:48:16;13.23;;;7.65;;
44328;SDS011;30039;51.462;6.892;2023-02-14T15:51:03;18.30;;;8.73;;
44328;SDS011;30039;51.462;6.892;2023-02-14T15:53:51;14.27;;;7.80;;
44328;SDS011;30039;51.462;6.892;2023-02-14T15:56:42;16.48;;;7.85;;
44328;SDS011;30039;51.462;6.892;2023-02-14T15:59:29;16.35;;;7.53;;
44328;SDS011;30039;51.462;6.892;2023-02-14T16:05:23;15.48;;;7.47;;
44328;SDS011;30039;51.462;6.892;2023-02-14T16:11:24;17.30;;;7.25;;
44328;SDS011;30039;51.462;6.892;2023-02-14T16:17:11;18.42;;;7.65;;
44328;SDS011;30039;51.462;6.892;2023-02-14T16:19:56;15.52;;;7.13;;
44328;SDS011;30039;51.462;6.892;2023-02-14T16:22:43;15.88;;;7.97;;
44328;SDS011;30039;51.462;6.892;2023-02-14T16:25:29;14.57;;;7.93;;
44328;SDS011;30039;51.462;6.892;2023-02-14T16:28:15;14.43;;;7.45;;
44328;SDS011;30039;51.462;6.892;2023-02-14T16:31:01;16.52;;;7.38;;
44328;SDS011;30039;51.462;6.892;2023-02-14T16:33:47;12.25;;;6.20;;
44328;SDS011;30039;51.462;6.892;2023-02-14T16:36:32;15.43;;;7.07;;
44328;SDS011;30039;51.462;6.892;2023-02-14T16:39:19;15.25;;;7.45;;
44328;SDS011;30039;51.462;6.892;2023-02-14T16:42:13;15.77;;;6.80;;
44328;SDS011;30039;51.462;6.892;2023-02-14T16:45:00;15.85;;;8.48;;
44328;SDS011;30039;51.462;6.892;2023-02-14T16:47:46;18.67;;;8.35;;
44328;SDS011;30039;51.462;6.892;2023-02-14T16:50:32;14.98;;;8.18;;
44328;SDS011;30039;51.462;6.892;2023-02-14T16:53:25;17.25;;;7.80;;
44328;SDS011;30039;51.462;6.892;2023-02-14T16:56:16;18.13;;;7.30;;
44328;SDS011;30039;51.462;6.892;2023-02-14T16:59:03;12.90;;;7.03;;
44328;SDS011;30039;51.462;6.892;2023-02-14T17:01:49;15.63;;;7.35;;
44328;SDS011;30039;51.462;6.892;2023-02-14T17:04:34;16.15;;;6.95;;
44328;SDS011;30039;51.462;6.892;2023-02-14T17:07:20;13.75;;;7.55;;
44328;SDS011;30039;51.462;6.892;2023-02-14T17:10:07;14.38;;;7.45;;
44328;SDS011;30039;51.462;6.892;2023-02-14T17:12:53;16.52;;;8.18;;
44328;SDS011;30039;51.462;6.892;2023-02-14T17:15:40;16.27;;;7.50;;
44328;SDS011;30039;51.462;6.892;2023-02-14T17:18:28;17.85;;;7.65;;
44328;SDS011;30039;51.462;6.892;2023-02-14T17:21:15;18.02;;;7.80;;
44328;SDS011;30039;51.462;6.892;2023-02-14T17:24:02;14.13;;;7.28;;
44328;SDS011;30039;51.462;6.892;2023-02-14T17:26:48;15.10;;;7.35;;
44328;SDS011;30039;51.462;6.892;2023-02-14T17:29:34;16.75;;;7.53;;
44328;SDS011;30039;51.462;6.892;2023-02-14T17:32:21;17.65;;;8.25;;
44328;SDS011;30039;51.462;6.892;2023-02-14T17:35:07;17.58;;;8.18;;
44328;SDS011;30039;51.462;6.892;2023-02-14T17:37:54;18.52;;;8.88;;
44328;SDS011;30039;51.462;6.892;2023-02-14T17:40:41;16.05;;;7.97;;
44328;SDS011;30039;51.462;6.892;2023-02-14T17:43:26;18.92;;;9.10;;
44328;SDS011;30039;51.462;6.892;2023-02-14T17:46:12;22.88;;;9.90;;
44328;SDS011;30039;51.462;6.892;2023-02-14T17:49:02;23.73;;;10.10;;
44328;SDS011;30039;51.462;6.892;2023-02-14T17:51:48;20.52;;;9.32;;
44328;SDS011;30039;51.462;6.892;2023-02-14T17:54:37;20.35;;;9.63;;
44328;SDS011;30039;51.462;6.892;2023-02-14T17:57:22;20.42;;;9.55;;
44328;SDS011;30039;51.462;6.892;2023-02-14T18:00:08;18.95;;;8.68;;
44328;SDS011;30039;51.462;6.892;2023-02-14T18:02:54;22.67;;;9.18;;
44328;SDS011;30039;51.462;6.892;2023-02-14T18:05:39;18.23;;;9.00;;
44328;SDS011;30039;51.462;6.892;2023-02-14T18:08:26;16.55;;;9.10;;
44328;SDS011;30039;51.462;6.892;2023-02-14T18:11:13;19.63;;;10.60;;
44328;SDS011;30039;51.462;6.892;2023-02-14T18:13:59;20.23;;;10.85;;
44328;SDS011;30039;51.462;6.892;2023-02-14T18:16:45;19.17;;;10.07;;
44328;SDS011;30039;51.462;6.892;2023-02-14T18:19:31;21.40;;;9.10;;
44328;SDS011;30039;51.462;6.892;2023-02-14T18:22:17;20.70;;;9.85;;
44328;SDS011;30039;51.462;6.892;2023-02-14T18:25:03;19.67;;;9.65;;
44328;SDS011;30039;51.462;6.892;2023-02-14T18:27:49;23.95;;;10.90;;
44328;SDS011;30039;51.462;6.892;2023-02-14T18:30:36;22.90;;;10.27;;
44328;SDS011;30039;51.462;6.892;2023-02-14T18:33:21;23.27;;;11.07;;
44328;SDS011;30039;51.462;6.892;2023-02-14T18:36:11;23.40;;;11.30;;
44328;SDS011;30039;51.462;6.892;2023-02-14T18:38:58;26.70;;;13.15;;
44328;SDS011;30039;51.462;6.892;2023-02-14T18:41:43;27.20;;;13.27;;
44328;SDS011;30039;51.462;6.892;2023-02-14T18:44:29;25.27;;;13.38;;
44328;SDS011;30039;51.462;6.892;2023-02-14T18:47:16;32.15;;;12.82;;
44328;SDS011;30039;51.462;6.892;2023-02-14T18:50:03;33.55;;;13.98;;
44328;SDS011;30039;51.462;6.892;2023-02-14T18:52:49;30.60;;;13.70;;
44328;SDS011;30039;51.462;6.892;2023-02-14T18:55:35;28.95;;;14.40;;
44328;SDS011;30039;51.462;6.892;2023-02-14T18:58:21;25.35;;;14.07;;
44328;SDS011;30039;51.462;6.892;2023-02-14T19:01:11;26.10;;;12.95;;